Kelly, WY (83011)

4:04 PM MDT on September 16, 2014 (GMT -0600)
Jackson Hole | Change Station
CLOSE
Current Station
Airport
Location: Jackson,
Elevation: 6450 ft
Nearby Weather Stations

Elev 6450 ft 43.61 °N, 110.74 °W | Updated 13 minutes ago

Mostly Cloudy
Mostly Cloudy
75 °F
Feels Like 75 °F
N
5
Wind Variable Wind from SW

Today
High -- | Low -- °F
--% Chance of Precip.
Yesterday
High -- | Low -- °F
Precip. -- in
7:01 AM 7:29 PM
Last Quarter, 42% visible
Pressure 30.18 in
Visibility 10.0 miles
Clouds Clear
Dew Point 36 °F
Humidity 24%
Rainfall 0.00 in
Snow Depth 1 in , 0 in , 0 in
UV 5 out of 12
Pollen 6.10 out of 12
Air Quality Not available.
Flu Activity Not available.
METAR KJAC 162151Z 23004KT 10SM CLR 24/02 A3018

More Conditions Fewer Conditions

Pressure 30.18 in
Visibility 10.0 miles
Clouds Clear
Dew Point 36 °F
Humidity 24%
Rainfall 0.00 in
Snow Depth 1 in , 0 in , 0 in
UV 5 out of 12
Pollen 6.10 out of 12
Air Quality Not available.
Flu Activity Not available.
METAR KJAC 162151Z 23004KT 10SM CLR 24/02 A3018

More Conditions Fewer Conditions

10-Day Weather Forecast

Almanac

Astronomy

Sep. 16, 2014 Rise Set
Actual Time 7:01 AM MDT 7:29 PM MDT
Civil Twilight 6:33 AM MDT 7:58 PM MDT
Nautical Twilight 5:59 AM MDT 8:32 PM MDT
Astronomical Twilight 5:24 AM MDT 9:07 PM MDT
Moon 12:06 AM MDT 3:03 PM MDT
Length of Visible Light 13h 25m
Length of Day
12h 27m
Tomorrow will be 2m 57s shorter.
Last Quarter, 42% of the Moon is Illuminated
Today
Last Quarter
Sep 24
New
Oct 1
First Quarter
Oct 8
Full
Oct 15
Last Quarter

Today's Extremes

State Highs State Lows

Community

WunderPhotos

Upload Photos

1,753,895 photos uploaded!

Nearby

Snow Depth

Station Depth Elevation
Blind Bull Summit 1 in 8900 ft
Burgess Junction 0 in 7880 ft
Marquette 0 in 8760 ft
Spring Creek Divide 0 in 9000 ft
Sylvan Road 0 in 7120 ft

Earthquake Activity

City Distance Mag. Time & Date
No recent earthquake activity has been reported nearby.
Minimum magnitude displayed is 2.5.

Coastal Water Temperatures

Place Temperature
No Stations Reporting

Nearby Weather Stations